Terminal Aerodrome Forecast
Issued by NWS

Home | Current Version | Previous Version | Text Only | Print | Product List | Glossary On
Versions: 1 2 3 4 5 6 7 8 9 10 11 12 13
000
FTUS46 KLOX 182300 RRA
TAFPMD
TAF
KPMD 182340Z 1900/1924 25016KT P6SM SCT250
     FM190300 23011KT P6SM BKN250
     FM190500 21005KT P6SM BKN250
     FM191200 VRB03KT P6SM SCT250
     FM192000 29005KT P6SM SCT250
     FM192200 26014KT P6SM SCT250=

USA.gov is the U.S. government's official web portal to all federal, state and local government web resources and services.